^^
Datos históricos de la estación: Murcia-Puente Tocinos
Diario Informe para Febrero 9, 2019 Unidades:  Ingés    Métrico   Ambas
Diario Semanal Mensual Anual
  Máxima: Mínima: Promedio:
Temperatura: 84.9 °F 71.1 °F 77.2 °F
Punto de rocio: 59.5 °F 53.2 °F 55.9 °F
Humedad: 62.9% 37.3% 49%
Velocidad viento: 12.5mph 0mph 4.1mph
Racha viento: 20mph - -
Viento- - SSO
Presión: 29.9 in 29.8 in -
Precipitación: 0 in    
 
 
Tabla de datos para Febrero 9, 2019
Hora Temperatura Punto de rocio Presión Viento Velocidad viento Racha viento Humedad Intensidad lluvia(por hora) Nubes
00:04 75.7 °F 53.4 °F 29.8 in Oeste 4 mph 7 mph 45.8% 0 in
00:09 75.7 °F 53.4 °F 29.8 in ONO 3.9 mph 6 mph 46% 0 in
00:14 75.6 °F 53.2 °F 29.8 in ONO 3.6 mph 5 mph 46% 0 in
00:19 75.6 °F 53.2 °F 29.8 in NO 3 mph 5 mph 46% 0 in
00:24 75.6 °F 53.2 °F 29.8 in NO 2 mph 5 mph 46% 0 in
00:29 75.6 °F 53.6 °F 29.8 in NO 1.9 mph 4 mph 46.6% 0 in
00:34 75.4 °F 53.8 °F 29.8 in NO 1.8 mph   47% 0 in
00:39 75.4 °F 53.8 °F 29.8 in NO 1.1 mph 2.9 mph 47% 0 in
00:44 75.2 °F 53.6 °F 29.8 in Calm   3.5 mph 47% 0 in
00:49 75 °F 53.4 °F 29.8 in NO 0.5 mph 3 mph 47% 0 in
00:54 75 °F 53.4 °F 29.8 in NO 1.4 mph 1 mph 47% 0 in
00:59 75 °F 53.4 °F 29.8 in NO 0.7 mph   47% 0 in
01:04 75 °F 53.4 °F 29.8 in Calm   4.7 mph 47% 0 in
01:09 75 °F 53.4 °F 29.8 in North 0.7 mph 5 mph 47% 0 in
01:14 75 °F 53.4 °F 29.8 in North 2 mph 5 mph 47% 0 in
01:19 75 °F 54 °F 29.9 in North 1.8 mph 3 mph 47.8% 0 in
01:24 75 °F 54 °F 29.9 in North 1.4 mph 1.4 mph 48% 0 in
01:29 74.8 °F 54 °F 29.9 in North 0.9 mph 4.6 mph 48% 0 in
01:34 74.8 °F 53.8 °F 29.9 in Calm   5 mph 48% 0 in
01:39 74.8 °F 53.8 °F 29.9 in NO 0.4 mph 3 mph 48% 0 in
01:44 74.8 °F 53.8 °F 29.9 in NO 1.4 mph   48% 0 in
01:49 74.8 °F 53.8 °F 29.9 in NO 0.9 mph   48% 0 in
01:54 74.7 °F 53.8 °F 29.9 in Calm     48.2% 0 in
01:59 74.7 °F 54.1 °F 29.9 in Calm     49% 0 in
02:04 74.7 °F 54.1 °F 29.9 in Calm   2 mph 49% 0 in
02:09 74.7 °F 54.1 °F 29.9 in Calm   3.6 mph 49% 0 in
02:14 74.7 °F 54.1 °F 29.9 in Calm   4.6 mph 49% 0 in
02:19 74.5 °F 54.5 °F 29.9 in SSO 0.7 mph 5.4 mph 49.7% 0 in
02:24 74.3 °F 54.5 °F 29.8 in Sur 2 mph 6 mph 50% 0 in
02:29 74.3 °F 54.3 °F 29.8 in SSO 2.4 mph 6 mph 49.7% 0 in
02:34 74.5 °F 54 °F 29.8 in OSO 3.1 mph 5 mph 49% 0 in
02:39 74.7 °F 54.1 °F 29.8 in OSO 2.9 mph 5 mph 49% 0 in
02:44 74.7 °F 54.1 °F 29.8 in OSO 2.4 mph 5 mph 49% 0 in
02:49 74.7 °F 54.7 °F 29.8 in NO 2.1 mph 4 mph 49.9% 0 in
02:54 74.5 °F 54.7 °F 29.8 in NO 1.4 mph 4 mph 50% 0 in
02:59 74.3 °F 54.5 °F 29.8 in NO 0.7 mph   50% 0 in
03:04 74.1 °F 54.3 °F 29.8 in Calm   3.6 mph 50% 0 in
03:09 73.9 °F 54.5 °F 29.8 in Calm   4 mph 50.6% 0 in
03:14 73.9 °F 54.7 °F 29.8 in Calm   2 mph 51% 0 in
03:19 73.9 °F 54.7 °F 29.8 in Calm     51% 0 in
03:24 73.8 °F 54.5 °F 29.8 in Calm     51% 0 in
03:29 73.8 °F 54.5 °F 29.8 in Calm     51% 0 in
03:34 73.8 °F 54.5 °F 29.8 in Calm     51.1% 0 in
03:39 73.6 °F 54.7 °F 29.8 in Calm     51.4% 0 in
03:44 73.6 °F 54.9 °F 29.8 in Calm     52% 0 in
03:49 73.6 °F 54.9 °F 29.8 in Calm     52% 0 in
03:54 73.6 °F 54.9 °F 29.8 in Calm     52% 0 in
03:59 73.6 °F 54.9 °F 29.8 in Calm     52% 0 in
04:04 73.4 °F 54.9 °F 29.8 in Calm     52.2% 0 in
04:09 73.4 °F 55 °F 29.8 in Calm     52.7% 0 in
04:14 73.2 °F 55.2 °F 29.8 in Calm   4.6 mph 53.4% 0 in
04:19 73 °F 55.4 °F 29.8 in NNO 0.7 mph 5 mph 54.3% 0 in
04:24 72.9 °F 55.6 °F 29.8 in NNO 1.8 mph 3.5 mph 55% 0 in
04:29 72.5 °F 55.4 °F 29.8 in ENE 1.8 mph 3.5 mph 55% 0 in
04:34 72.1 °F 55.6 °F 29.9 in SE 1.8 mph 5.2 mph 55.8% 0 in
04:39 72.1 °F 55.4 °F 29.9 in SSE 2.3 mph 5.8 mph 55.7% 0 in
04:44 72.1 °F 54.7 °F 29.9 in SSO 3.1 mph 6 mph 54.4% 0 in
04:49 72.3 °F 54.9 °F 29.9 in SSO 2.7 mph 5 mph 54.3% 0 in
04:54 72.5 °F 54.9 °F 29.9 in OSO 1.8 mph 4.7 mph 54% 0 in
04:59 72.7 °F 54.7 °F 29.9 in Oeste 1.9 mph 5 mph 53.3% 0 in
05:04 72.7 °F 54.7 °F 29.9 in ONO 2 mph 5 mph 53.3% 0 in
05:09 72.7 °F 54.9 °F 29.9 in NO 1.9 mph 5.4 mph 53.6% 0 in
05:14 72.7 °F 55 °F 29.9 in NO 1.8 mph 6 mph 53.8% 0 in
05:19 72.7 °F 55 °F 29.9 in NO 2.3 mph 6 mph 54% 0 in
05:24 72.5 °F 54.9 °F 29.9 in ONO 3.1 mph 5 mph 54% 0 in
05:29 72.7 °F 55 °F 29.9 in ONO 3.1 mph 6.9 mph 54% 0 in
05:34 72.7 °F 55 °F 29.9 in ONO 3.1 mph 7 mph 54% 0 in
05:39 72.7 °F 55 °F 29.9 in Oeste 3 mph 6 mph 54% 0 in
05:44 72.7 °F 55 °F 29.9 in Oeste 2.9 mph 5 mph 54% 0 in
05:49 72.7 °F 55 °F 29.9 in ONO 2.5 mph 5 mph 54% 0 in
05:54 72.7 °F 55 °F 29.9 in NNO 1.8 mph 5 mph 54% 0 in
05:59 72.5 °F 54.9 °F 29.9 in NNO 2.3 mph 5 mph 54% 0 in
06:04 72.3 °F 54.7 °F 29.9 in NNO 2.9 mph 5 mph 54% 0 in
06:09 72.3 °F 54.9 °F 29.9 in NNO 2.4 mph 5 mph 54.4% 0 in
06:14 72.3 °F 55.2 °F 29.9 in NNE 1.4 mph 3.6 mph 55% 0 in
06:19 72.3 °F 55.6 °F 29.9 in NE 1.6 mph 4 mph 55.8% 0 in
06:24 72 °F 55.8 °F 29.9 in NE 1.8 mph 3 mph 56.4% 0 in
06:29 71.8 °F 55.4 °F 29.9 in NO 1.8 mph 6.9 mph 56.3% 0 in
06:34 72 °F 55.2 °F 29.9 in ONO 1.8 mph 7 mph 55.7% 0 in
06:39 72.1 °F 55.4 °F 29.9 in NO 2.4 mph 5.2 mph 55.6% 0 in
06:44 72.1 °F 55.6 °F 29.9 in NO 3.6 mph 6.4 mph 56% 0 in
06:49 72 °F 55.4 °F 29.9 in NO 3.9 mph 11.5 mph 56% 0 in
06:54 72.1 °F 55.4 °F 29.9 in NO 4.3 mph 12 mph 55.6% 0 in
06:59 72.1 °F 55.6 °F 29.9 in ONO 5.5 mph 12 mph 55.8% 0 in
07:04 72 °F 55.4 °F 29.9 in ONO 6.9 mph 10.7 mph 56% 0 in
07:09 71.8 °F 55.2 °F 29.9 in NO 6.5 mph 13 mph 56% 0 in
07:14 71.6 °F 55.2 °F 29.9 in NO 5.9 mph 13 mph 56.3% 0 in
07:19 71.4 °F 55.4 °F 29.9 in ONO 6.3 mph 13 mph 57% 0 in
07:24 71.4 °F 55.4 °F 29.9 in NO 6.9 mph 12 mph 57% 0 in
07:29 71.2 °F 55.2 °F 29.9 in ONO 6.7 mph 10.4 mph 57% 0 in
07:34 71.2 °F 55.4 °F 29.9 in ONO 6.4 mph 10 mph 57.4% 0 in
07:39 71.1 °F 55.6 °F 29.9 in NO 5.7 mph 8 mph 58% 0 in
07:44 71.1 °F 55.6 °F 29.9 in NNE 4.3 mph 5 mph 58% 0 in
07:49 71.1 °F 55.6 °F 29.9 in ESE 3.7 mph 6.9 mph 58.1% 0 in
07:54 71.1 °F 55.9 °F 29.9 in SE 2.4 mph 7 mph 59% 0 in
07:59 71.1 °F 55.4 °F 29.9 in SSE 3.1 mph 6 mph 58% 0 in
08:04 71.1 °F 55.6 °F 29.9 in SSE 4 mph 6 mph 58% 0 in
08:09 71.1 °F 55.6 °F 29.9 in SSE 3.9 mph 6 mph 58% 0 in
08:14 71.2 °F 55.6 °F 29.9 in SSE 3.6 mph 8.1 mph 57.7% 0 in
08:19 71.2 °F 55.4 °F 29.9 in Sur 3.9 mph 8 mph 57.2% 0 in
08:24 71.2 °F 55.2 °F 29.9 in Sur 4.3 mph 7 mph 57% 0 in
08:29 71.2 °F 55.2 °F 29.9 in OSO 3.8 mph 5 mph 57% 0 in
08:34 71.4 °F 55.2 °F 29.9 in Oeste 2.9 mph 6.2 mph 56.8% 0 in
08:39 71.4 °F 55.2 °F 29.9 in SO 2.6 mph 6 mph 56.7% 0 in
08:44 71.4 °F 55.2 °F 29.9 in SO 2 mph 6.9 mph 56.4% 0 in
08:49 71.8 °F 55.2 °F 29.9 in OSO 2.7 mph 8.5 mph 56% 0 in
08:54 71.8 °F 55.2 °F 29.9 in OSO 4 mph 11.8 mph 56% 0 in
08:59 72 °F 55.4 °F 29.9 in Oeste 4.3 mph 12 mph 56% 0 in
09:04 72.1 °F 55.4 °F 29.9 in Oeste 4.7 mph 10 mph 55.8% 0 in
09:09 72.3 °F 55.2 °F 29.9 in Oeste 4.5 mph 9.7 mph 55% 0 in
09:14 72.3 °F 55.2 °F 29.9 in Oeste 4 mph 10 mph 55% 0 in
09:19 72.3 °F 55.4 °F 29.9 in ONO 4.5 mph 11.5 mph 55.3% 0 in
09:24 72.3 °F 55.2 °F 29.9 in ONO 5.4 mph 12 mph 55.1% 0 in
09:29 72.3 °F 55.4 °F 29.9 in Oeste 5.3 mph 9 mph 55.4% 0 in
09:34 72.7 °F 55.6 °F 29.9 in ONO 5.2 mph 7.6 mph 55% 0 in
09:39 72.7 °F 55.6 °F 29.9 in Oeste 4.8 mph 8.5 mph 55% 0 in
09:44 72.9 °F 55.6 °F 29.9 in OSO 4 mph 11.2 mph 54.7% 0 in
09:49 72.9 °F 55.2 °F 29.9 in OSO 4.7 mph 11 mph 54.1% 0 in
09:54 73 °F 55.4 °F 29.9 in OSO 5.9 mph 10 mph 54.2% 0 in
09:59 73.2 °F 55.6 °F 29.9 in Oeste 5.3 mph 9 mph 54% 0 in
10:04 73.4 °F 55.2 °F 29.9 in OSO 4.7 mph 8.1 mph 53.1% 0 in
10:09 73.2 °F 55.6 °F 29.9 in ONO 4.9 mph 8.1 mph 53.9% 0 in
10:14 73.6 °F 55.8 °F 29.9 in ONO 5.2 mph 8.5 mph 54% 0 in
10:19 73.8 °F 55.9 °F 29.9 in ONO 5.3 mph 9.2 mph 53.9% 0 in
10:24 73.9 °F 55.8 °F 29.9 in Oeste 5.4 mph 10.4 mph 53% 0 in
10:29 74.1 °F 55.8 °F 29.9 in ONO 5.7 mph 10 mph 52.7% 0 in
10:34 74.7 °F 55.9 °F 29.9 in ONO 6.2 mph 8 mph 52.2% 0 in
10:39 74.8 °F 55.6 °F 29.9 in NO 5.7 mph 9.2 mph 51.1% 0 in
10:44 75 °F 55.6 °F 29.9 in NO 4.7 mph 9.2 mph 50.9% 0 in
10:49 75.4 °F 55.9 °F 29.9 in NO 4.8 mph 8 mph 51% 0 in
10:54 75.7 °F 55.9 °F 29.9 in Oeste 5.2 mph 7.4 mph 50.3% 0 in
10:59 75.9 °F 55.4 °F 29.9 in Oeste 4.8 mph 7 mph 49.1% 0 in
11:04 75.9 °F 55.2 °F 29.9 in ONO 4.3 mph 7 mph 48.8% 0 in
11:09 76.1 °F 55.6 °F 29.9 in Oeste 3.9 mph 7.4 mph 49% 0 in
11:14 76.3 °F 55.4 °F 29.9 in SO 3.1 mph 7 mph 48.6% 0 in
11:19 76.5 °F 55.6 °F 29.9 in OSO 3.3 mph 9.2 mph 48.6% 0 in
11:24 76.5 °F 55.2 °F 29.9 in ONO 3.6 mph 9 mph 48% 0 in
11:29 76.6 °F 55.4 °F 29.9 in OSO 3.6 mph 6.2 mph 47.6% 0 in
11:34 77.2 °F 55.4 °F 29.9 in Sur 3.6 mph 6 mph 47% 0 in
11:39 77.5 °F 55.8 °F 29.9 in ESE 3 mph 5.2 mph 47% 0 in
11:44 78.3 °F 55.8 °F 29.9 in NO 2 mph 5 mph 46% 0 in
11:49 78.6 °F 55.8 °F 29.9 in NO 2 mph 7.4 mph 45.5% 0 in
11:54 79.2 °F 55.4 °F 29.9 in SSO 2 mph 10.4 mph 44.1% 0 in
11:59 79 °F 55.8 °F 29.9 in SO 3.2 mph 10.4 mph 45% 0 in
12:04 78.6 °F 55.6 °F 29.9 in OSO 4.7 mph 10 mph 45% 0 in
12:09 78.6 °F 55.6 °F 29.9 in OSO 4.5 mph 8.1 mph 45% 0 in
12:14 78.8 °F 55.6 °F 29.9 in NNO 4.3 mph 7 mph 45% 0 in
12:19 79.2 °F 55.9 °F 29.9 in ENE 3.9 mph 6.9 mph 45% 0 in
12:24 79.3 °F 56.1 °F 29.9 in NE 3.1 mph 8.1 mph 44.9% 0 in
12:29 79.5 °F 55.8 °F 29.9 in Este 3.1 mph 8 mph 44.1% 0 in
12:34 79.9 °F 55.4 °F 29.9 in ONO 3.1 mph 7 mph 43% 0 in
12:39 80.1 °F 55.4 °F 29.9 in ENE 3.1 mph 7 mph 42.8% 0 in
12:44 80.6 °F 55.6 °F 29.9 in Este 3.1 mph 6 mph 42.2% 0 in
12:49 81.3 °F 55.8 °F 29.9 in NO 2.9 mph 9.2 mph 41.6% 0 in
12:54 81.5 °F 55.4 °F 29.9 in ONO 2.4 mph 12.7 mph 41% 0 in
12:59 80.8 °F 55.6 °F 29.9 in NO 3.8 mph 13 mph 41.9% 0 in
13:04 81 °F 55.2 °F 29.9 in North 5.4 mph 10.4 mph 41.4% 0 in
13:09 81.1 °F 55 °F 29.9 in ONO 5.2 mph 12.7 mph 40.8% 0 in
13:14 81.1 °F 55 °F 29.9 in ONO 4.7 mph 13 mph 40.8% 0 in
13:19 81.3 °F 54.9 °F 29.9 in Oeste 5 mph 10.4 mph 40.3% 0 in
13:24 81.9 °F 55 °F 29.9 in Oeste 5.4 mph 10 mph 40% 0 in
13:29 81.9 °F 55 °F 29.9 in SSO 5.4 mph 9.2 mph 39.8% 0 in
13:34 82 °F 55.4 °F 29.9 in SE 5.4 mph 9 mph 39.9% 0 in
13:39 82.8 °F 55.2 °F 29.9 in Oeste 4.9 mph 8.5 mph 39% 0 in
13:44 82.8 °F 55.2 °F 29.9 in SSO 4 mph 10.4 mph 39% 0 in
13:49 82.6 °F 55 °F 29.9 in SE 4.4 mph 10.2 mph 39% 0 in
13:54 82.4 °F 55 °F 29.9 in OSO 5.2 mph 10.4 mph 39% 0 in
13:59 82.6 °F 55.2 °F 29.9 in Sur 5 mph 9 mph 39% 0 in
14:04 83.1 °F 55.6 °F 29.9 in SE 4.7 mph 7 mph 38.8% 0 in
14:09 83.8 °F 55.6 °F 29.9 in NO 4 mph 5.8 mph 38% 0 in
14:14 84.4 °F 55.6 °F 29.9 in North 2.9 mph 6.2 mph 37.5% 0 in
14:19 84.6 °F 55.6 °F 29.9 in Este 3 mph 6.9 mph 37.3% 0 in
14:24 84.4 °F 55.6 °F 29.9 in SE 3.1 mph 8.5 mph 37.3% 0 in
14:29 84 °F 56.1 °F 29.9 in SE 3.7 mph 14 mph 38.6% 0 in
14:34 83.8 °F 56.1 °F 29.9 in ESE 4.7 mph 14 mph 38.9% 0 in
14:39 83.8 °F 57 °F 29.9 in SE 5.2 mph 15.9 mph 40.3% 0 in
14:44 83.3 °F 57.9 °F 29.9 in SE 6.2 mph 16.1 mph 42.1% 0 in
14:49 82.6 °F 57.6 °F 29.9 in SE 7.5 mph 15 mph 42.8% 0 in
14:54 82.4 °F 57.7 °F 29.9 in SE 9.7 mph 15 mph 43.3% 0 in
14:59 82.6 °F 57.6 °F 29.9 in ESE 8.8 mph 13 mph 42.6% 0 in
15:04 82.9 °F 57.4 °F 29.9 in ESE 7.6 mph 12 mph 41.9% 0 in
15:09 83.1 °F 57 °F 29.9 in ESE 7.1 mph 12 mph 41.1% 0 in
15:14 83.1 °F 57 °F 29.9 in Este 5.9 mph 12 mph 41% 0 in
15:19 83.5 °F 57.4 °F 29.9 in ESE 5.5 mph 8.7 mph 41.1% 0 in
15:24 83.7 °F 56.8 °F 29.9 in ESE 4.7 mph 10.4 mph 40% 0 in
15:29 83.7 °F 57 °F 29.9 in ESE 4.8 mph 10 mph 40.2% 0 in
15:34 83.8 °F 56.8 °F 29.9 in SE 5.2 mph 10 mph 40% 0 in
15:39 83.8 °F 57.2 °F 29.9 in ESE 5 mph 9.2 mph 40.4% 0 in
15:44 84 °F 57.4 °F 29.9 in Este 4.7 mph 9 mph 40.4% 0 in
15:49 84.4 °F 57.6 °F 29.9 in ESE 4.5 mph 13.8 mph 40.2% 0 in
15:54 84.4 °F 57.4 °F 29.8 in SE 4.3 mph 14 mph 40% 0 in
15:59 84.6 °F 57.9 °F 29.8 in SE 5.2 mph 11.2 mph 40.5% 0 in
16:04 84.6 °F 57.6 °F 29.8 in SSE 6.2 mph 12 mph 39.9% 0 in
16:09 84.7 °F 57.7 °F 29.8 in SE 5.8 mph 12 mph 40% 0 in
16:14 84.7 °F 57.7 °F 29.8 in ESE 5.2 mph 12.7 mph 40% 0 in
16:19 84.6 °F 58.1 °F 29.8 in ESE 6.2 mph 19.2 mph 40.6% 0 in
16:24 84 °F 57.7 °F 29.8 in SE 8.1 mph 20 mph 40.8% 0 in
16:29 84.2 °F 57.7 °F 29.8 in SE 9.2 mph 18.4 mph 40.9% 0 in
16:34 83.5 °F 57.6 °F 29.8 in SE 11.2 mph 18 mph 41.5% 0 in
16:39 83.3 °F 57.6 °F 29.8 in SE 11.2 mph 18 mph 41.4% 0 in
16:44 83.1 °F 57.6 °F 29.8 in SE 11.2 mph 15.2 mph 42% 0 in
16:49 83.3 °F 57.7 °F 29.8 in SE 10.3 mph 15 mph 42% 0 in
16:54 83.5 °F 57.9 °F 29.8 in ESE 8.5 mph 15 mph 42% 0 in
16:59 83.5 °F 58.3 °F 29.8 in SE 7.5 mph 12 mph 42.4% 0 in
17:04 83.5 °F 58.6 °F 29.8 in ESE 6.2 mph 12.3 mph 43% 0 in
17:09 83.5 °F 58.6 °F 29.8 in SE 6.6 mph 16.1 mph 43% 0 in
17:14 83.3 °F 58.5 °F 29.8 in ESE 7.4 mph 16.1 mph 42.9% 0 in
17:19 83.3 °F 58.5 °F 29.8 in SE 7.8 mph 16 mph 42.8% 0 in
17:24 83.5 °F 58.1 °F 29.8 in SE 8.5 mph 14.5 mph 42% 0 in
17:29 83.7 °F 57.9 °F 29.8 in SE 8.1 mph 15 mph 41.7% 0 in
17:34 84 °F 57.7 °F 29.8 in SSE 7.4 mph 15 mph 41% 0 in
17:39 84.7 °F 57.9 °F 29.8 in SSE 7 mph 13.8 mph 40.4% 0 in
17:44 84.9 °F 57.9 °F 29.8 in SE 6.4 mph 15 mph 40% 0 in
17:49 84.6 °F 57.7 °F 29.8 in SE 7.1 mph 19.7 mph 40.2% 0 in
17:54 84.4 °F 58.1 °F 29.8 in SE 8.5 mph 20 mph 41% 0 in
17:59 84.2 °F 57.9 °F 29.8 in SE 9.3 mph 19 mph 41% 0 in
18:04 84 °F 57.9 °F 29.8 in SE 10.2 mph 17.3 mph 41.1% 0 in
18:09 84.2 °F 57.9 °F 29.8 in SE 10 mph 17.8 mph 41% 0 in
18:14 83.8 °F 57.7 °F 29.8 in SE 9.7 mph 18.4 mph 41.2% 0 in
18:19 83.7 °F 57.9 °F 29.8 in SE 10.1 mph 18 mph 41.8% 0 in
18:24 83.8 °F 57.7 °F 29.8 in SE 10.7 mph 16 mph 41% 0 in
18:29 83.8 °F 57.7 °F 29.8 in SE 10.3 mph 17.5 mph 41% 0 in
18:34 83.3 °F 57.6 °F 29.8 in SE 9.7 mph 18.4 mph 41.6% 0 in
18:39 82.9 °F 57.4 °F 29.8 in SE 10.4 mph 18.5 mph 42% 0 in
18:44 82.8 °F 57.4 °F 29.8 in SE 12.5 mph 19 mph 42% 0 in
18:49 82.8 °F 57.4 °F 29.8 in SE 11.7 mph 18.1 mph 42.2% 0 in
18:54 82.8 °F 57.2 °F 29.8 in SE 10.2 mph 18.4 mph 42% 0 in
18:59 82.8 °F 57.2 °F 29.8 in SE 10.6 mph 18 mph 42% 0 in
19:04 82.9 °F 57.4 °F 29.8 in SE 11.2 mph 16 mph 42% 0 in
19:09 82.9 °F 56.8 °F 29.8 in SE 10.5 mph 17.3 mph 41% 0 in
19:14 82.8 °F 57 °F 29.8 in SSE 9.2 mph 17 mph 41.5% 0 in
19:19 82.6 °F 56.8 °F 29.8 in SSE 8.9 mph 15.6 mph 41.6% 0 in
19:24 82.2 °F 56.3 °F 29.8 in SE 8.5 mph 16.1 mph 41.2% 0 in
19:29 82 °F 56.5 °F 29.8 in SE 8.4 mph 16 mph 41.7% 0 in
19:34 81.9 °F 56.5 °F 29.8 in SE 8.1 mph 12.7 mph 42% 0 in
19:39 81.5 °F 56.3 °F 29.8 in SE 7.8 mph 13.8 mph 42.1% 0 in
19:44 81.1 °F 56.3 °F 29.8 in SE 7.4 mph 14 mph 42.6% 0 in
19:49 81 °F 56.3 °F 29.8 in SE 7.1 mph 12 mph 42.9% 0 in
19:54 80.8 °F 56.3 °F 29.8 in ESE 6.4 mph 11.5 mph 43% 0 in
19:59 80.6 °F 55.9 °F 29.8 in SE 6.3 mph 12 mph 43% 0 in
20:04 80.2 °F 56.1 °F 29.8 in SE 6.2 mph 11.5 mph 43.5% 0 in
20:09 80.2 °F 56.3 °F 29.8 in SE 6.3 mph 12 mph 44% 0 in
20:14 80.2 °F 56.3 °F 29.8 in SE 6.4 mph 12 mph 44% 0 in
20:19 80.1 °F 56.1 °F 29.8 in SE 6.3 mph 9 mph 44% 0 in
20:24 80.2 °F 56.3 °F 29.8 in SE 6.2 mph 7 mph 44% 0 in
20:29 80.2 °F 56.3 °F 29.8 in SE 5.5 mph 6.9 mph 44% 0 in
20:34 80.2 °F 56.5 °F 29.8 in ESE 4 mph 7 mph 44.2% 0 in
20:39 79.9 °F 56.7 °F 29.8 in ESE 4 mph 7.4 mph 45% 0 in
20:44 79.3 °F 56.7 °F 29.8 in Este 4 mph 7 mph 45.6% 0 in
20:49 79.2 °F 56.7 °F 29.8 in ENE 3.7 mph 6 mph 46% 0 in
20:54 79 °F 56.3 °F 29.8 in NE 3.1 mph 6.2 mph 46% 0 in
20:59 78.4 °F 56.1 °F 29.8 in ENE 3.3 mph 6.2 mph 46.2% 0 in
21:04 78.3 °F 56.5 °F 29.8 in ENE 3.6 mph 6 mph 47% 0 in
21:09 78.3 °F 56.3 °F 29.8 in ENE 3.4 mph 6.9 mph 47% 0 in
21:14 77.9 °F 56.5 °F 29.8 in Este 3.1 mph 7 mph 47.8% 0 in
21:19 77.7 °F 56.7 °F 29.8 in ESE 3.2 mph 6.2 mph 48.2% 0 in
21:24 77.5 °F 56.8 °F 29.8 in ESE 3.6 mph 7.4 mph 49% 0 in
21:29 77.4 °F 56.8 °F 29.8 in SE 4 mph 7 mph 49% 0 in
21:34 77.5 °F 57.2 °F 29.8 in SE 4.7 mph 7 mph 49.5% 0 in
21:39 77.4 °F 57.4 °F 29.8 in ESE 4.1 mph 5 mph 50% 0 in
21:44 77.4 °F 57.4 °F 29.8 in ESE 2.9 mph 5 mph 50% 0 in
21:49 77.4 °F 57.4 °F 29.9 in ESE 1.9 mph 3 mph 50% 0 in
21:54 77.4 °F 57.4 °F 29.9 in Calm   4.7 mph 50% 0 in
21:59 77.4 °F 57.4 °F 29.9 in SSE 1.1 mph 5 mph 50% 0 in
22:04 77.4 °F 57.4 °F 29.9 in SSE 2.4 mph 5 mph 50% 0 in
22:09 77.2 °F 57.2 °F 29.9 in SSE 2.4 mph 4.7 mph 50% 0 in
22:14 77.2 °F 57.4 °F 29.9 in Sur 2.4 mph 5.9 mph 50.6% 0 in
22:19 77 °F 57.4 °F 29.9 in NNO 2.5 mph 6 mph 51% 0 in
22:24 76.6 °F 57.7 °F 29.9 in NNO 2.9 mph 5 mph 51.9% 0 in
22:29 76.6 °F 58.3 °F 29.9 in NO 2.5 mph 3.5 mph 53% 0 in
22:34 76.5 °F 58.5 °F 29.9 in NO 1.8 mph 3 mph 53.8% 0 in
22:39 76.5 °F 58.6 °F 29.9 in NO 1.2 mph 2.4 mph 54% 0 in
22:44 76.3 °F 59 °F 29.9 in Calm   4.6 mph 55% 0 in
22:49 76.1 °F 59.2 °F 29.9 in ONO 0.6 mph 5 mph 56% 0 in
22:54 75.9 °F 59.4 °F 29.9 in ONO 1.8 mph 3.5 mph 56.5% 0 in
22:59 75.7 °F 59.4 °F 29.9 in NO 1.6 mph 4.6 mph 57% 0 in
23:04 75.4 °F 59.4 °F 29.9 in NO 1.4 mph 5 mph 57.3% 0 in
23:09 75.2 °F 59.4 °F 29.9 in NO 0.9 mph 4.6 mph 58% 0 in
23:14 74.8 °F 59.5 °F 29.9 in Calm   5 mph 58.8% 0 in
23:19 74.8 °F 59.5 °F 29.9 in NO 0.7 mph 4.7 mph 59% 0 in
23:24 74.7 °F 59.4 °F 29.9 in North 2 mph 6.4 mph 59.2% 0 in
23:29 73.9 °F 58.3 °F 29.9 in NE 2.5 mph 7 mph 58.2% 0 in
23:34 73.6 °F 58.6 °F 29.9 in NNE 3.6 mph 7 mph 59.5% 0 in
23:39 73.2 °F 58.6 °F 29.9 in NE 3.4 mph 5 mph 60.3% 0 in
23:44 73 °F 58.8 °F 29.9 in NNE 3.1 mph 5.2 mph 61% 0 in
23:49 72.9 °F 58.8 °F 29.9 in NE 2.9 mph 5 mph 61.4% 0 in
23:54 72.7 °F 59 °F 29.9 in NNE 2.4 mph 5.2 mph 62% 0 in
23:59 72.3 °F 59 °F 29.9 in ENE 2.4 mph 5 mph 62.9% 0 in
Murcia-Puente Tocinos, España
Compliments of Weather Underground - 3 mb

La estación de MeteoMurcia.com, publica sus datos en los siguientes proyectos:

Weather Underground PWS IMURCIAP2 Meteoclimatic www.awekas.at

W3Counter
Web Analytics